Time;durP1;ratioP1;P1;durP2;ratioP2;P2;SDS_P1;SDS_P2;PMS_P1;PMS_P2;Temp;Humidity;BMP_temperature;BMP_pressure;BME280_temperature;BME280_humidity;BME280_pressure;Samples;Min_cycle;Max_cycle;Signal;HPM_P1;HPM_P2
2022/04/20 00:01:11;;;;;;;12.82;7.05;;;;;;;;;;5042519;28;20030;-61
2022/04/20 00:03:38;;;;;;;11.55;6.85;;;;;;;;;;5039893;28;20557;-61
2022/04/20 00:06:07;;;;;;;10.57;7.30;;;;;;;;;;5041444;28;20028;-61
2022/04/20 00:08:33;;;;;;;14.02;6.68;;;;;;;;;;5036579;28;20090;-61
2022/04/20 00:11:02;;;;;;;14.48;6.97;;;;;;;;;;5045458;28;20037;-61
2022/04/20 00:13:28;;;;;;;8.15;6.13;;;;;;;;;;5037738;28;20753;-61
2022/04/20 00:15:54;;;;;;;10.02;6.85;;;;;;;;;;5035769;28;20505;-61
2022/04/20 00:18:19;;;;;;;11.95;6.32;;;;;;;;;;5038116;28;20025;-61
2022/04/20 00:20:45;;;;;;;8.20;5.90;;;;;;;;;;5035904;28;20375;-61
2022/04/20 00:23:11;;;;;;;10.93;5.95;;;;;;;;;;5037717;28;20123;-61
2022/04/20 00:25:37;;;;;;;10.00;6.45;;;;;;;;;;5042633;28;20035;-61
2022/04/20 00:28:02;;;;;;;9.10;5.85;;;;;;;;;;5040317;28;20032;-61
2022/04/20 00:30:28;;;;;;;12.75;5.97;;;;;;;;;;5035984;28;20091;-61
2022/04/20 00:32:55;;;;;;;8.30;5.72;;;;;;;;;;5039259;28;20525;-61
2022/04/20 00:35:21;;;;;;;14.48;5.80;;;;;;;;;;5037996;28;20052;-61
2022/04/20 00:37:48;;;;;;;8.82;5.75;;;;;;;;;;5048024;28;20569;-62
2022/04/20 00:40:14;;;;;;;8.20;5.60;;;;;;;;;;5039780;28;20037;-61
2022/04/20 00:42:41;;;;;;;6.43;5.75;;;;;;;;;;5037169;28;20556;-61
2022/04/20 00:45:08;;;;;;;5.68;4.95;;;;;;;;;;5038239;28;20060;-61
2022/04/20 00:47:44;;;;;;;7.38;5.40;;;;;;;;;;5040271;28;20114;-61
2022/04/20 00:50:12;;;;;;;11.55;5.47;;;;;;;;;;5037186;28;20036;-61
2022/04/20 00:52:38;;;;;;;9.82;5.75;;;;;;;;;;5033741;28;20025;-61
2022/04/20 00:55:05;;;;;;;12.30;6.65;;;;;;;;;;5040092;28;20049;-61
2022/04/20 00:57:32;;;;;;;8.23;5.30;;;;;;;;;;5039409;28;20036;-61
2022/04/20 01:00:01;;;;;;;5.80;5.13;;;;;;;;;;5035281;28;20035;-61
2022/04/20 01:02:33;;;;;;;13.27;4.90;;;;;;;;;;5037516;28;20104;-61
2022/04/20 01:04:59;;;;;;;9.10;5.47;;;;;;;;;;5035693;28;20167;-61
2022/04/20 01:07:25;;;;;;;7.88;5.00;;;;;;;;;;5036632;28;20052;-61
2022/04/20 01:09:50;;;;;;;6.22;4.93;;;;;;;;;;5036766;28;20079;-61
2022/04/20 01:12:18;;;;;;;10.48;5.32;;;;;;;;;;5042563;28;20040;-61
2022/04/20 01:14:44;;;;;;;10.02;5.82;;;;;;;;;;5035890;28;20040;-61
2022/04/20 01:17:10;;;;;;;5.60;5.07;;;;;;;;;;5034361;28;20402;-61
2022/04/20 01:19:40;;;;;;;7.22;5.20;;;;;;;;;;5034762;28;20041;-61
2022/04/20 01:22:08;;;;;;;7.03;5.15;;;;;;;;;;5037348;28;20479;-61
2022/04/20 01:24:36;;;;;;;7.60;5.43;;;;;;;;;;5037030;28;20030;-61
2022/04/20 01:27:02;;;;;;;8.63;4.93;;;;;;;;;;5039532;28;20065;-61
2022/04/20 01:29:29;;;;;;;10.55;5.80;;;;;;;;;;5038464;28;20549;-61
2022/04/20 01:31:55;;;;;;;15.45;6.00;;;;;;;;;;5040332;28;20480;-61
2022/04/20 01:34:22;;;;;;;8.18;4.90;;;;;;;;;;5038083;28;20505;-61
2022/04/20 01:36:48;;;;;;;7.53;5.25;;;;;;;;;;5039302;28;20091;-61
2022/04/20 01:39:15;;;;;;;9.52;5.18;;;;;;;;;;5039800;28;20059;-61
2022/04/20 01:41:41;;;;;;;8.85;5.38;;;;;;;;;;5034331;28;20025;-62
2022/04/20 01:44:07;;;;;;;10.35;5.40;;;;;;;;;;5038560;28;20500;-61
2022/04/20 01:46:33;;;;;;;11.95;5.60;;;;;;;;;;5035502;28;20065;-61
2022/04/20 01:48:59;;;;;;;6.10;5.30;;;;;;;;;;5042461;28;20057;-61
2022/04/20 01:54:11;;;;;;;8.05;5.70;;;;;;;;;;5035325;28;20450;-61
2022/04/20 01:56:36;;;;;;;9.45;4.75;;;;;;;;;;5036835;28;20082;-61
2022/04/20 01:59:03;;;;;;;6.35;5.40;;;;;;;;;;5047149;28;20028;-62
2022/04/20 02:04:12;;;;;;;7.00;5.10;;;;;;;;;;5031592;28;20040;-61
2022/04/20 02:06:38;;;;;;;14.98;5.03;;;;;;;;;;5039208;28;20395;-61
2022/04/20 02:09:04;;;;;;;7.80;5.18;;;;;;;;;;5039054;28;20033;-61
2022/04/20 02:11:30;;;;;;;8.30;4.88;;;;;;;;;;5039764;28;20036;-61
2022/04/20 02:13:57;;;;;;;6.70;4.68;;;;;;;;;;5033820;28;20038;-61
2022/04/20 02:16:23;;;;;;;5.60;5.00;;;;;;;;;;5035661;28;20577;-61
2022/04/20 02:18:50;;;;;;;7.88;4.80;;;;;;;;;;5036607;28;20029;-61
2022/04/20 02:21:15;;;;;;;9.48;5.00;;;;;;;;;;5040943;28;20034;-61
2022/04/20 02:23:41;;;;;;;11.43;5.53;;;;;;;;;;5040383;28;20033;-61
2022/04/20 02:26:07;;;;;;;4.82;4.30;;;;;;;;;;5033069;28;20025;-61
2022/04/20 02:28:33;;;;;;;7.20;4.70;;;;;;;;;;5037383;28;20109;-61
2022/04/20 02:30:59;;;;;;;7.72;4.60;;;;;;;;;;5038774;28;20430;-61
2022/04/20 02:33:25;;;;;;;10.68;4.93;;;;;;;;;;5039948;28;20030;-61
2022/04/20 02:35:51;;;;;;;8.52;5.03;;;;;;;;;;5040553;28;20116;-61
2022/04/20 02:38:17;;;;;;;7.38;4.60;;;;;;;;;;5040200;28;20069;-61
2022/04/20 02:40:44;;;;;;;7.00;4.22;;;;;;;;;;5032470;28;20048;-62
2022/04/20 02:43:10;;;;;;;7.20;4.60;;;;;;;;;;5030759;28;20033;-61
2022/04/20 02:45:37;;;;;;;5.80;4.32;;;;;;;;;;5043038;28;20029;-61
2022/04/20 02:48:03;;;;;;;6.55;4.53;;;;;;;;;;5043162;28;20442;-61
2022/04/20 02:50:29;;;;;;;7.47;4.13;;;;;;;;;;5072090;28;20389;-61
2022/04/20 02:52:56;;;;;;;7.35;4.72;;;;;;;;;;5049049;28;20029;-61
2022/04/20 02:55:22;;;;;;;8.45;4.78;;;;;;;;;;5037625;28;20033;-61
2022/04/20 02:57:47;;;;;;;9.85;5.00;;;;;;;;;;5045490;28;20363;-61
2022/04/20 03:00:14;;;;;;;6.88;4.50;;;;;;;;;;5038326;28;20045;-61
2022/04/20 03:02:40;;;;;;;9.05;4.55;;;;;;;;;;5040424;28;20030;-61
2022/04/20 03:05:06;;;;;;;7.68;4.65;;;;;;;;;;5041002;28;20021;-61
2022/04/20 03:07:32;;;;;;;8.60;5.00;;;;;;;;;;5043877;28;20600;-61
2022/04/20 03:09:58;;;;;;;6.70;4.53;;;;;;;;;;5041882;28;20028;-61
2022/04/20 03:12:23;;;;;;;5.43;4.32;;;;;;;;;;5039402;28;20470;-61
2022/04/20 03:14:51;;;;;;;7.03;4.70;;;;;;;;;;5044070;28;20497;-61
2022/04/20 03:17:17;;;;;;;7.97;4.13;;;;;;;;;;5041114;28;20100;-61
2022/04/20 03:19:43;;;;;;;6.75;4.15;;;;;;;;;;5036937;28;20025;-61
2022/04/20 03:22:09;;;;;;;4.85;4.38;;;;;;;;;;5040430;28;20044;-61
2022/04/20 03:24:34;;;;;;;8.55;4.38;;;;;;;;;;5041102;28;20496;-61
2022/04/20 03:27:00;;;;;;;4.88;4.32;;;;;;;;;;5040116;28;20025;-61
2022/04/20 03:29:26;;;;;;;9.45;4.60;;;;;;;;;;5038367;28;20025;-61
2022/04/20 03:31:53;;;;;;;5.75;4.15;;;;;;;;;;5039687;28;20037;-61
2022/04/20 03:34:19;;;;;;;6.18;4.43;;;;;;;;;;5038329;28;20538;-61
2022/04/20 03:36:46;;;;;;;8.95;4.15;;;;;;;;;;5039581;28;20032;-61
2022/04/20 03:39:12;;;;;;;5.85;4.30;;;;;;;;;;5039806;28;20037;-61
2022/04/20 03:41:37;;;;;;;5.45;4.20;;;;;;;;;;5038220;28;20091;-61
2022/04/20 03:44:03;;;;;;;5.63;4.30;;;;;;;;;;5041848;28;20593;-61
2022/04/20 03:46:29;;;;;;;12.20;4.20;;;;;;;;;;5036706;28;20048;-61
2022/04/20 03:48:55;;;;;;;7.95;4.72;;;;;;;;;;5040087;28;20087;-61
2022/04/20 03:51:20;;;;;;;6.30;4.00;;;;;;;;;;5046467;28;20036;-61
2022/04/20 03:53:46;;;;;;;5.30;4.35;;;;;;;;;;5041805;28;20061;-61
2022/04/20 03:56:12;;;;;;;5.15;4.13;;;;;;;;;;5034347;28;20033;-61
2022/04/20 03:58:38;;;;;;;6.55;4.30;;;;;;;;;;5038950;28;20017;-61
2022/04/20 04:01:03;;;;;;;7.05;4.20;;;;;;;;;;5038549;28;20117;-61
2022/04/20 04:03:29;;;;;;;5.38;4.50;;;;;;;;;;5037914;28;20060;-61
2022/04/20 04:05:56;;;;;;;5.90;4.10;;;;;;;;;;5038466;28;20164;-61
2022/04/20 04:08:22;;;;;;;7.72;4.28;;;;;;;;;;5043001;28;20037;-61
2022/04/20 04:10:47;;;;;;;7.93;4.38;;;;;;;;;;5035202;28;20037;-61
2022/04/20 04:13:13;;;;;;;5.50;4.57;;;;;;;;;;5034779;28;20469;-61
2022/04/20 04:15:39;;;;;;;7.47;4.47;;;;;;;;;;5039793;28;20098;-61
2022/04/20 04:18:05;;;;;;;5.43;4.35;;;;;;;;;;5036819;28;20037;-61
2022/04/20 04:20:31;;;;;;;10.73;5.00;;;;;;;;;;5038148;28;20032;-61
2022/04/20 04:22:57;;;;;;;5.07;4.30;;;;;;;;;;5036215;28;20025;-61
2022/04/20 04:25:22;;;;;;;10.30;4.75;;;;;;;;;;5035566;28;20390;-61
2022/04/20 04:27:48;;;;;;;6.03;4.78;;;;;;;;;;5035793;28;20029;-61
2022/04/20 04:30:14;;;;;;;8.18;4.85;;;;;;;;;;5038200;28;20041;-61
2022/04/20 04:32:40;;;;;;;5.25;4.60;;;;;;;;;;5043893;28;20032;-61
2022/04/20 04:35:08;;;;;;;7.85;4.88;;;;;;;;;;5037696;28;20366;-60
2022/04/20 04:37:36;;;;;;;11.25;5.00;;;;;;;;;;5038558;28;20393;-61
2022/04/20 04:40:03;;;;;;;7.10;4.80;;;;;;;;;;5037208;28;20097;-61
2022/04/20 04:42:29;;;;;;;7.18;4.43;;;;;;;;;;5040064;28;20029;-61
2022/04/20 04:48:36;;;;;;;5.15;4.60;;;;;;;;;;5046036;28;20033;-61
2022/04/20 04:50:26;;;;;;;6.43;4.65;;;;;;;;;;5035974;28;20083;-61
2022/04/20 04:52:52;;;;;;;9.60;5.30;;;;;;;;;;5032660;28;20029;-61
2022/04/20 04:55:18;;;;;;;6.20;4.93;;;;;;;;;;5036492;28;20394;-61
2022/04/20 04:57:43;;;;;;;6.60;4.43;;;;;;;;;;5044400;28;20033;-61
2022/04/20 05:00:09;;;;;;;7.05;4.55;;;;;;;;;;5044681;28;20052;-61
2022/04/20 05:02:35;;;;;;;4.95;4.45;;;;;;;;;;5032896;28;20122;-61
2022/04/20 05:05:01;;;;;;;6.07;4.78;;;;;;;;;;5034487;28;20496;-61
2022/04/20 05:07:28;;;;;;;5.32;4.82;;;;;;;;;;5036278;28;20975;-61
2022/04/20 05:09:54;;;;;;;11.20;4.90;;;;;;;;;;5039915;28;20037;-61
2022/04/20 05:12:19;;;;;;;5.72;4.50;;;;;;;;;;5037680;28;20034;-61
2022/04/20 05:14:45;;;;;;;5.88;5.28;;;;;;;;;;5041199;28;20484;-61
2022/04/20 05:17:11;;;;;;;10.82;4.70;;;;;;;;;;5036273;28;20624;-61
2022/04/20 05:19:37;;;;;;;7.05;4.47;;;;;;;;;;5038103;28;20377;-61
2022/04/20 05:22:03;;;;;;;5.50;4.70;;;;;;;;;;5038292;28;20036;-61
2022/04/20 05:24:28;;;;;;;6.32;4.75;;;;;;;;;;5033933;28;20037;-61
2022/04/20 05:26:54;;;;;;;8.18;5.70;;;;;;;;;;5039273;28;20401;-61
2022/04/20 05:29:20;;;;;;;8.80;5.30;;;;;;;;;;5034947;28;20067;-61
2022/04/20 05:31:46;;;;;;;9.27;4.80;;;;;;;;;;5036020;28;20044;-61
2022/04/20 05:34:12;;;;;;;9.68;4.95;;;;;;;;;;5043439;28;20041;-61
2022/04/20 05:42:17;;;;;;;8.30;5.72;;;;;;;;;;5041232;28;20045;-61
2022/04/20 05:44:42;;;;;;;6.05;5.53;;;;;;;;;;5039964;28;20425;-61
2022/04/20 05:47:08;;;;;;;11.00;5.82;;;;;;;;;;5040289;28;20041;-61
2022/04/20 05:49:34;;;;;;;18.88;5.75;;;;;;;;;;5032542;28;20033;-61
2022/04/20 05:51:59;;;;;;;9.27;5.20;;;;;;;;;;5039161;28;20500;-61
2022/04/20 05:54:25;;;;;;;7.45;5.63;;;;;;;;;;5036989;28;20131;-61
2022/04/20 05:56:51;;;;;;;10.50;6.13;;;;;;;;;;5027536;28;20164;-62
2022/04/20 05:59:18;;;;;;;10.82;6.13;;;;;;;;;;5039692;28;20125;-61
2022/04/20 06:01:44;;;;;;;19.90;6.78;;;;;;;;;;5019761;28;20136;-61
2022/04/20 06:04:10;;;;;;;10.23;7.10;;;;;;;;;;5030753;28;20036;-61
2022/04/20 06:06:35;;;;;;;19.13;7.47;;;;;;;;;;5042658;28;20420;-61
2022/04/20 06:09:01;;;;;;;13.13;7.70;;;;;;;;;;5041011;28;20059;-61
2022/04/20 06:11:29;;;;;;;14.00;8.05;;;;;;;;;;5030902;28;20481;-61
2022/04/20 06:13:54;;;;;;;15.38;7.50;;;;;;;;;;5031301;28;20034;-60
2022/04/20 06:16:20;;;;;;;13.02;7.97;;;;;;;;;;5041139;28;20082;-60
2022/04/20 06:18:46;;;;;;;11.85;7.00;;;;;;;;;;5033177;28;20030;-60
2022/04/20 06:21:12;;;;;;;9.95;7.05;;;;;;;;;;5038242;28;20033;-60
2022/04/20 06:23:37;;;;;;;14.00;7.13;;;;;;;;;;5041139;28;20047;-60
2022/04/20 06:26:03;;;;;;;11.52;7.20;;;;;;;;;;5035325;28;20693;-60
2022/04/20 06:28:29;;;;;;;9.20;6.97;;;;;;;;;;5037592;28;20117;-60
2022/04/20 06:30:55;;;;;;;12.48;7.55;;;;;;;;;;5040661;28;20040;-59
2022/04/20 06:33:24;;;;;;;10.77;7.20;;;;;;;;;;5038996;28;20448;-60
2022/04/20 06:35:51;;;;;;;13.48;7.90;;;;;;;;;;5035568;28;20401;-60
2022/04/20 06:38:17;;;;;;;12.15;8.00;;;;;;;;;;5036153;28;20082;-60
2022/04/20 06:40:43;;;;;;;12.02;7.53;;;;;;;;;;5038834;28;20049;-61
2022/04/20 06:43:09;;;;;;;11.40;7.82;;;;;;;;;;5035186;28;20025;-60
2022/04/20 06:45:34;;;;;;;16.60;8.35;;;;;;;;;;5042374;28;20048;-60
2022/04/20 06:48:00;;;;;;;15.52;7.40;;;;;;;;;;5035752;28;20033;-60
2022/04/20 06:50:27;;;;;;;12.07;7.70;;;;;;;;;;5034291;28;20026;-60
2022/04/20 06:58:39;;;;;;;13.25;7.70;;;;;;;;;;5036540;28;20091;-60
2022/04/20 07:01:07;;;;;;;10.82;7.97;;;;;;;;;;5035650;28;20112;-60
2022/04/20 07:03:37;;;;;;;14.20;7.30;;;;;;;;;;5037336;28;20041;-60
2022/04/20 07:06:03;;;;;;;9.27;7.50;;;;;;;;;;5035364;28;20496;-60
2022/04/20 07:08:30;;;;;;;14.20;7.93;;;;;;;;;;5036321;28;20025;-60
2022/04/20 07:10:57;;;;;;;13.02;7.28;;;;;;;;;;5037340;28;20512;-60
2022/04/20 07:13:23;;;;;;;18.23;7.07;;;;;;;;;;5037581;28;20480;-60
2022/04/20 07:15:49;;;;;;;12.65;6.35;;;;;;;;;;5033510;28;20040;-60
2022/04/20 07:18:15;;;;;;;11.48;6.43;;;;;;;;;;5037740;28;20695;-60
2022/04/20 07:20:41;;;;;;;14.13;6.85;;;;;;;;;;5040325;28;20033;-60
2022/04/20 07:23:08;;;;;;;13.57;6.55;;;;;;;;;;5038578;28;20048;-61
2022/04/20 07:25:34;;;;;;;10.32;6.45;;;;;;;;;;5038091;28;22570;-61
2022/04/20 07:28:00;;;;;;;11.55;7.38;;;;;;;;;;5038996;28;20037;-61
2022/04/20 07:30:28;;;;;;;11.20;6.70;;;;;;;;;;5037615;28;20036;-60
2022/04/20 07:32:54;;;;;;;7.68;6.10;;;;;;;;;;5039121;28;20106;-60
2022/04/20 07:35:21;;;;;;;10.70;6.68;;;;;;;;;;5038185;28;20033;-61
2022/04/20 07:37:46;;;;;;;14.00;6.30;;;;;;;;;;5040459;28;20425;-61
2022/04/20 07:40:12;;;;;;;12.85;6.30;;;;;;;;;;5036802;28;20040;-61
2022/04/20 07:42:38;;;;;;;12.95;8.23;;;;;;;;;;5037412;28;20037;-61
2022/04/20 07:45:05;;;;;;;14.02;7.90;;;;;;;;;;5034197;28;20034;-61
2022/04/20 07:47:30;;;;;;;10.65;6.25;;;;;;;;;;5040956;28;20033;-60
2022/04/20 07:52:42;;;;;;;7.57;6.35;;;;;;;;;;5038463;28;20439;-61
2022/04/20 07:55:13;;;;;;;10.50;5.88;;;;;;;;;;5044865;28;20052;-61
2022/04/20 07:57:39;;;;;;;11.93;6.60;;;;;;;;;;5037333;28;20026;-61
2022/04/20 08:00:06;;;;;;;9.95;6.35;;;;;;;;;;5039061;28;20040;-61
2022/04/20 08:02:33;;;;;;;12.13;6.82;;;;;;;;;;5038330;28;20040;-61
2022/04/20 08:04:58;;;;;;;10.15;5.80;;;;;;;;;;5040169;28;20038;-61
2022/04/20 08:07:26;;;;;;;11.00;6.75;;;;;;;;;;5038845;28;20071;-60
2022/04/20 08:09:52;;;;;;;7.75;5.93;;;;;;;;;;5040784;28;20036;-61
2022/04/20 08:12:18;;;;;;;12.07;5.95;;;;;;;;;;5041226;28;20120;-61
2022/04/20 08:14:44;;;;;;;8.77;5.53;;;;;;;;;;5046072;28;20532;-60
2022/04/20 08:17:10;;;;;;;7.40;5.80;;;;;;;;;;5040847;28;20048;-61
2022/04/20 08:19:35;;;;;;;13.30;6.07;;;;;;;;;;5035977;28;20036;-60
2022/04/20 08:22:01;;;;;;;8.73;5.22;;;;;;;;;;5041009;28;20029;-61
2022/04/20 08:24:27;;;;;;;10.65;5.80;;;;;;;;;;5039142;28;20028;-61
2022/04/20 08:26:53;;;;;;;7.82;5.55;;;;;;;;;;5037724;28;20024;-60
2022/04/20 08:29:19;;;;;;;9.52;5.68;;;;;;;;;;5037912;28;20094;-61
2022/04/20 08:31:44;;;;;;;10.80;5.15;;;;;;;;;;5036369;28;20029;-61
2022/04/20 08:34:10;;;;;;;6.80;4.53;;;;;;;;;;5038739;28;20035;-60
2022/04/20 08:36:36;;;;;;;11.93;5.22;;;;;;;;;;5041606;28;20148;-60
2022/04/20 08:39:03;;;;;;;11.00;5.35;;;;;;;;;;5037238;28;20116;-61
2022/04/20 08:41:29;;;;;;;10.30;5.60;;;;;;;;;;5038127;28;20033;-61
2022/04/20 08:43:56;;;;;;;6.35;4.70;;;;;;;;;;5037596;28;20095;-60
2022/04/20 08:46:23;;;;;;;8.85;5.00;;;;;;;;;;5038143;28;20036;-61
2022/04/20 08:48:49;;;;;;;8.55;5.15;;;;;;;;;;5038247;28;20398;-60
2022/04/20 08:51:17;;;;;;;7.20;4.85;;;;;;;;;;5042638;28;20033;-61
2022/04/20 08:53:42;;;;;;;10.93;5.18;;;;;;;;;;5039561;28;20590;-61
2022/04/20 08:58:54;;;;;;;6.72;4.85;;;;;;;;;;5037589;28;20025;-60
2022/04/20 09:01:20;;;;;;;9.75;5.82;;;;;;;;;;5037982;28;20029;-60
2022/04/20 09:03:46;;;;;;;6.57;4.50;;;;;;;;;;5039214;28;20036;-61
2022/04/20 09:06:16;;;;;;;6.53;4.63;;;;;;;;;;5034709;28;20091;-60
2022/04/20 09:08:44;;;;;;;11.43;4.75;;;;;;;;;;5036153;28;20401;-60
2022/04/20 09:11:10;;;;;;;9.68;4.53;;;;;;;;;;5035525;28;20033;-60
2022/04/20 09:13:44;;;;;;;7.05;4.50;;;;;;;;;;5033894;28;20080;-60
2022/04/20 09:16:12;;;;;;;6.57;4.80;;;;;;;;;;5038255;28;20122;-60
2022/04/20 09:18:40;;;;;;;6.10;4.10;;;;;;;;;;5038212;28;20029;-60
2022/04/20 09:21:11;;;;;;;6.50;4.10;;;;;;;;;;5037166;28;20029;-61
2022/04/20 09:23:37;;;;;;;7.07;4.72;;;;;;;;;;5039144;28;20104;-60
2022/04/20 09:26:10;;;;;;;4.57;4.15;;;;;;;;;;5038724;28;20037;-60
2022/04/20 09:28:42;;;;;;;6.32;3.90;;;;;;;;;;5038149;28;20052;-61
2022/04/20 09:31:09;;;;;;;8.73;4.30;;;;;;;;;;5039854;28;20039;-61
2022/04/20 09:33:46;;;;;;;9.43;4.40;;;;;;;;;;5036145;28;20091;-60
2022/04/20 09:36:13;;;;;;;5.75;4.43;;;;;;;;;;5038448;28;20032;-60
2022/04/20 09:38:59;;;;;;;7.38;4.40;;;;;;;;;;5039510;28;20033;-61
2022/04/20 09:41:25;;;;;;;4.20;3.90;;;;;;;;;;5033805;28;20066;-61
2022/04/20 09:44:06;;;;;;;5.57;4.43;;;;;;;;;;5040956;28;20931;-60
2022/04/20 09:49:16;;;;;;;12.63;4.32;;;;;;;;;;5034458;28;20033;-61
2022/04/20 09:51:42;;;;;;;6.55;4.13;;;;;;;;;;5040892;28;20035;-61
2022/04/20 09:54:28;;;;;;;7.82;4.53;;;;;;;;;;5037310;28;20131;-61
2022/04/20 09:57:11;;;;;;;6.32;4.25;;;;;;;;;;5035344;28;20121;-61
2022/04/20 10:00:01;;;;;;;7.63;4.65;;;;;;;;;;5036432;28;20033;-60
2022/04/20 10:02:44;;;;;;;7.63;4.63;;;;;;;;;;5037018;28;20041;-60
2022/04/20 10:05:10;;;;;;;8.43;3.95;;;;;;;;;;5032741;28;20169;-61
2022/04/20 10:07:36;;;;;;;4.82;4.15;;;;;;;;;;5036658;28;20790;-60
2022/04/20 10:10:04;;;;;;;7.60;4.63;;;;;;;;;;5039558;28;20058;-61
2022/04/20 10:12:31;;;;;;;6.80;4.10;;;;;;;;;;5037778;28;20025;-61
2022/04/20 10:17:50;;;;;;;7.35;4.47;;;;;;;;;;5033701;28;20509;-61
2022/04/20 10:20:16;;;;;;;8.07;4.40;;;;;;;;;;5036689;28;20499;-61
2022/04/20 10:22:43;;;;;;;8.32;4.03;;;;;;;;;;5038396;28;20029;-61
2022/04/20 10:25:10;;;;;;;5.95;3.55;;;;;;;;;;5038558;28;20064;-61
2022/04/20 10:28:03;;;;;;;12.98;4.80;;;;;;;;;;5034432;28;20084;-60
2022/04/20 10:31:06;;;;;;;6.00;3.80;;;;;;;;;;5040278;28;20855;-61
2022/04/20 10:33:34;;;;;;;6.97;4.00;;;;;;;;;;5040648;28;20040;-61
2022/04/20 10:36:03;;;;;;;7.93;4.03;;;;;;;;;;5035070;28;20060;-61
2022/04/20 10:38:31;;;;;;;5.35;3.95;;;;;;;;;;5035129;28;20489;-61
2022/04/20 10:41:07;;;;;;;8.95;4.45;;;;;;;;;;5037037;28;20561;-61
2022/04/20 10:43:42;;;;;;;6.28;3.88;;;;;;;;;;5043219;28;20454;-61
2022/04/20 10:46:17;;;;;;;4.47;3.72;;;;;;;;;;5033016;28;20037;-61
2022/04/20 10:48:43;;;;;;;9.07;3.60;;;;;;;;;;5042012;28;20071;-61
2022/04/20 10:51:16;;;;;;;4.88;3.80;;;;;;;;;;5039264;28;20025;-61
2022/04/20 10:53:48;;;;;;;9.38;3.80;;;;;;;;;;5036108;28;20068;-61
2022/04/20 10:56:18;;;;;;;7.50;4.32;;;;;;;;;;5040317;28;20025;-61
2022/04/20 10:59:06;;;;;;;9.98;3.90;;;;;;;;;;5036471;28;20044;-60
2022/04/20 11:01:52;;;;;;;5.53;3.53;;;;;;;;;;5038953;28;20029;-60
2022/04/20 11:04:41;;;;;;;10.75;4.00;;;;;;;;;;5038234;28;20069;-60
2022/04/20 11:07:07;;;;;;;7.93;3.30;;;;;;;;;;5043490;28;20040;-60
2022/04/20 11:09:42;;;;;;;6.95;4.38;;;;;;;;;;5038586;28;20386;-61
2022/04/20 11:18:38;;;;;;;10.57;3.58;;;;;;;;;;5041560;28;20147;-60
2022/04/20 11:21:04;;;;;;;10.82;4.15;;;;;;;;;;5035623;28;20034;-61
2022/04/20 11:23:54;;;;;;;5.30;3.55;;;;;;;;;;5040073;28;20037;-60
2022/04/20 11:26:24;;;;;;;7.72;4.13;;;;;;;;;;5039436;28;20040;-61
2022/04/20 11:28:51;;;;;;;8.98;3.85;;;;;;;;;;5048470;28;20488;-61
2022/04/20 11:31:18;;;;;;;5.13;3.78;;;;;;;;;;5037923;28;20029;-60
2022/04/20 11:33:44;;;;;;;4.93;3.45;;;;;;;;;;5041739;28;20017;-60
2022/04/20 11:36:14;;;;;;;8.57;5.35;;;;;;;;;;5037675;28;20037;-61
2022/04/20 11:38:44;;;;;;;17.20;8.57;;;;;;;;;;5038221;28;20764;-61
2022/04/20 11:41:11;;;;;;;6.65;4.40;;;;;;;;;;5044881;28;20032;-60
2022/04/20 11:43:39;;;;;;;5.45;3.50;;;;;;;;;;5034642;28;20482;-61
2022/04/20 11:46:07;;;;;;;4.97;4.05;;;;;;;;;;5050220;28;20036;-61
2022/04/20 11:48:35;;;;;;;6.60;4.32;;;;;;;;;;5040105;28;20520;-61
2022/04/20 11:51:02;;;;;;;7.25;5.82;;;;;;;;;;5042014;28;20040;-61
2022/04/20 11:53:47;;;;;;;6.57;4.88;;;;;;;;;;5042771;28;20044;-61
2022/04/20 11:56:13;;;;;;;6.07;3.88;;;;;;;;;;5035519;28;20064;-61
2022/04/20 11:58:38;;;;;;;8.05;4.35;;;;;;;;;;5035230;28;20061;-61
2022/04/20 12:01:07;;;;;;;6.97;3.70;;;;;;;;;;5036830;28;20438;-61
2022/04/20 12:03:37;;;;;;;5.40;3.80;;;;;;;;;;5037739;28;20040;-60
2022/04/20 12:06:04;;;;;;;6.93;3.83;;;;;;;;;;5044048;28;20071;-61
2022/04/20 12:08:32;;;;;;;5.22;3.90;;;;;;;;;;5037428;28;20036;-61
2022/04/20 12:11:02;;;;;;;6.22;3.67;;;;;;;;;;5037753;28;20504;-61
2022/04/20 12:13:29;;;;;;;7.30;4.30;;;;;;;;;;5043645;28;20094;-61
2022/04/20 12:16:04;;;;;;;8.75;4.18;;;;;;;;;;5037537;28;20037;-61
2022/04/20 12:18:35;;;;;;;7.93;4.10;;;;;;;;;;5034924;28;20172;-61
2022/04/20 12:21:40;;;;;;;5.63;4.25;;;;;;;;;;5043009;28;20025;-61
2022/04/20 12:24:20;;;;;;;4.68;3.53;;;;;;;;;;5034151;28;20171;-61
2022/04/20 12:26:48;;;;;;;4.45;3.83;;;;;;;;;;5038027;28;20039;-61
2022/04/20 12:29:15;;;;;;;4.60;3.38;;;;;;;;;;5035696;28;20478;-61
2022/04/20 12:31:43;;;;;;;6.28;4.00;;;;;;;;;;5034407;28;20033;-61
2022/04/20 12:34:12;;;;;;;5.18;3.92;;;;;;;;;;5053316;28;20017;-61
2022/04/20 12:37:08;;;;;;;7.55;4.43;;;;;;;;;;5039615;28;20091;-61
2022/04/20 12:39:35;;;;;;;8.27;4.07;;;;;;;;;;5041124;28;20036;-60
2022/04/20 12:42:08;;;;;;;7.63;4.13;;;;;;;;;;5040730;28;20096;-61
2022/04/20 12:44:36;;;;;;;5.25;3.90;;;;;;;;;;5043293;28;20087;-60
2022/04/20 12:47:22;;;;;;;8.30;4.30;;;;;;;;;;5042579;28;20024;-61
2022/04/20 12:49:51;;;;;;;9.82;3.97;;;;;;;;;;5040920;28;20025;-61
2022/04/20 12:52:19;;;;;;;7.18;3.88;;;;;;;;;;5036940;28;20021;-61
2022/04/20 12:55:05;;;;;;;4.25;3.40;;;;;;;;;;5042056;28;20449;-61
2022/04/20 13:03:06;;;;;;;8.73;4.90;;;;;;;;;;5037416;28;20398;-61
2022/04/20 13:05:33;;;;;;;6.75;3.67;;;;;;;;;;5039781;28;20036;-60
2022/04/20 13:07:59;;;;;;;8.32;3.55;;;;;;;;;;5038221;28;20033;-61
2022/04/20 13:10:25;;;;;;;4.78;3.72;;;;;;;;;;5036712;28;20061;-61
2022/04/20 13:12:55;;;;;;;7.50;4.20;;;;;;;;;;5039200;28;20116;-60
2022/04/20 13:15:23;;;;;;;9.52;4.32;;;;;;;;;;5042204;28;20029;-61
2022/04/20 13:17:51;;;;;;;5.22;4.50;;;;;;;;;;5042763;28;20108;-61
2022/04/20 13:20:17;;;;;;;6.32;4.35;;;;;;;;;;5032974;28;20075;-61
2022/04/20 13:22:43;;;;;;;7.07;4.40;;;;;;;;;;5038694;28;20025;-61
2022/04/20 13:27:54;;;;;;;7.55;3.97;;;;;;;;;;5039158;28;20561;-61
2022/04/20 13:30:20;;;;;;;10.13;4.50;;;;;;;;;;5036377;28;20112;-61
2022/04/20 13:32:46;;;;;;;6.63;4.72;;;;;;;;;;5038121;28;20029;-61
2022/04/20 13:35:12;;;;;;;10.07;4.97;;;;;;;;;;5037457;28;20041;-62
2022/04/20 13:37:38;;;;;;;16.52;5.35;;;;;;;;;;5039558;28;20045;-61
2022/04/20 13:40:05;;;;;;;8.73;5.53;;;;;;;;;;5038076;28;20056;-63
2022/04/20 13:42:31;;;;;;;10.98;5.07;;;;;;;;;;5037160;28;20494;-65
2022/04/20 13:44:57;;;;;;;16.00;5.60;;;;;;;;;;5041928;28;20033;-66
2022/04/20 13:47:22;;;;;;;5.90;5.05;;;;;;;;;;5042664;28;20048;-65
2022/04/20 13:49:49;;;;;;;13.98;5.10;;;;;;;;;;5041503;28;20025;-65
2022/04/20 13:52:15;;;;;;;14.45;5.93;;;;;;;;;;5034118;28;20500;-63
2022/04/20 13:54:40;;;;;;;6.70;5.50;;;;;;;;;;5039554;28;20061;-63
2022/04/20 13:57:06;;;;;;;6.63;5.00;;;;;;;;;;5036323;28;20033;-63
2022/04/20 13:59:32;;;;;;;8.30;5.47;;;;;;;;;;5037478;28;20041;-63
2022/04/20 14:01:58;;;;;;;7.75;5.45;;;;;;;;;;5038158;28;20044;-64
2022/04/20 14:04:24;;;;;;;10.77;5.65;;;;;;;;;;5040875;28;20100;-63
2022/04/20 14:06:52;;;;;;;9.38;5.53;;;;;;;;;;5044466;28;20029;-64
2022/04/20 14:09:19;;;;;;;12.68;7.50;;;;;;;;;;5041172;28;20171;-65
2022/04/20 14:11:45;;;;;;;12.10;7.97;;;;;;;;;;5040706;28;20029;-64
2022/04/20 14:14:11;;;;;;;9.07;8.18;;;;;;;;;;5040799;28;20493;-65
2022/04/20 14:16:41;;;;;;;11.80;8.30;;;;;;;;;;5033877;28;20167;-64
2022/04/20 14:19:10;;;;;;;12.60;7.75;;;;;;;;;;5043988;28;20044;-64
2022/04/20 14:21:36;;;;;;;10.98;7.60;;;;;;;;;;5038576;28;20035;-64
2022/04/20 14:24:03;;;;;;;11.52;8.05;;;;;;;;;;5036306;28;20489;-63
2022/04/20 14:32:19;;;;;;;11.30;7.60;;;;;;;;;;5022918;28;20120;-65
2022/04/20 14:34:48;;;;;;;12.27;6.47;;;;;;;;;;5023251;28;20132;-65
2022/04/20 14:37:18;;;;;;;12.38;7.18;;;;;;;;;;5023256;28;20168;-65
2022/04/20 14:39:44;;;;;;;10.05;6.20;;;;;;;;;;5023976;28;20037;-65
2022/04/20 14:42:14;;;;;;;8.38;5.75;;;;;;;;;;5027089;28;20219;-64
2022/04/20 14:44:40;;;;;;;8.80;7.45;;;;;;;;;;5025932;28;20068;-63
2022/04/20 14:47:08;;;;;;;11.60;6.88;;;;;;;;;;5028661;28;20421;-64
2022/04/20 14:49:37;;;;;;;11.20;6.95;;;;;;;;;;5026528;28;20431;-63
2022/04/20 14:52:07;;;;;;;13.30;6.30;;;;;;;;;;5028071;28;20034;-64
2022/04/20 14:54:37;;;;;;;15.93;7.13;;;;;;;;;;5026226;28;20037;-65
2022/04/20 14:57:04;;;;;;;14.20;6.95;;;;;;;;;;5020186;28;20065;-64
2022/04/20 14:59:30;;;;;;;8.32;6.50;;;;;;;;;;5024314;28;20095;-64
2022/04/20 15:01:56;;;;;;;17.40;8.00;;;;;;;;;;5024118;28;20041;-64
2022/04/20 15:04:23;;;;;;;11.07;6.93;;;;;;;;;;5028762;28;20040;-63
2022/04/20 15:06:53;;;;;;;9.70;6.68;;;;;;;;;;5036450;28;20033;-63
2022/04/20 15:09:20;;;;;;;11.27;6.10;;;;;;;;;;5043977;28;20037;-63
2022/04/20 15:11:46;;;;;;;9.52;5.70;;;;;;;;;;5038706;28;20025;-63
2022/04/20 15:14:12;;;;;;;11.13;6.05;;;;;;;;;;5043923;28;20075;-62
2022/04/20 15:16:38;;;;;;;9.98;5.43;;;;;;;;;;5035911;28;20126;-64
2022/04/20 15:19:04;;;;;;;7.45;5.40;;;;;;;;;;5039684;28;20029;-63
2022/04/20 15:21:33;;;;;;;7.40;5.38;;;;;;;;;;5042731;28;20032;-63
2022/04/20 15:23:59;;;;;;;11.00;5.07;;;;;;;;;;5042646;28;20068;-63
2022/04/20 15:26:25;;;;;;;13.02;5.45;;;;;;;;;;5045573;28;20516;-63
2022/04/20 15:28:54;;;;;;;16.23;7.20;;;;;;;;;;5034351;28;20059;-63
2022/04/20 15:31:20;;;;;;;13.00;7.55;;;;;;;;;;5038305;28;20038;-63
2022/04/20 15:33:46;;;;;;;12.23;6.65;;;;;;;;;;5036670;28;20095;-63